Weather at Raivavae Airport

Public forecast

Using degrees Celsius for public forecast. Weather courtesy of forecast.io.

Closest aviation weather report (METAR) to Raivavae Airport

Report is more than 6 hours old.

Closest report is Mauke Airport, 583.9 nm (1,081.4 km) WNW. Retrieved 2022/06/21 17:00 UTC (3 months ago):

NCMK 211700Z AUTO 05002KT //// ////// ///// Q1013

Closest aviation forecast (TAF) to Raivavae Airport

Forecast is more than 12 hours old.

Closest forecast is Faa'a International Airport, 395.5 nm (732.5 km) NNW. Retrieved 2022/09/17 18:15 UTC (10 days ago):

TAF NTAA 171700Z 1718/1824 VRB05KT 9999 FEW025 SCT050